createdAt,value
2018-07-28T00:01:53.356Z,11.93
2018-07-28T00:04:21.435Z,11.17
2018-07-28T00:06:49.588Z,10.70
2018-07-28T00:09:18.148Z,11.57
2018-07-28T00:11:46.259Z,10.90
2018-07-28T00:14:14.360Z,14.37
2018-07-28T00:16:42.753Z,10.70
2018-07-28T00:19:10.897Z,11.20
2018-07-28T00:21:38.964Z,11.23
2018-07-28T00:24:07.499Z,10.60
2018-07-28T00:26:35.635Z,12.17
2018-07-28T00:29:04.062Z,10.87
2018-07-28T00:31:32.149Z,11.70
2018-07-28T00:34:00.218Z,11.73
2018-07-28T00:36:28.298Z,11.77
2018-07-28T00:38:56.405Z,12.13
2018-07-28T00:41:24.480Z,12.20
2018-07-28T00:43:52.542Z,12.00
2018-07-28T00:46:20.622Z,12.30
2018-07-28T00:48:48.721Z,13.00
2018-07-28T00:51:16.780Z,13.67
2018-07-28T00:53:44.849Z,12.80
2018-07-28T00:56:12.921Z,13.37
2018-07-28T00:58:40.993Z,13.17
2018-07-28T01:01:09.425Z,14.20
2018-07-28T01:03:37.488Z,12.70
2018-07-28T01:06:05.546Z,16.40
2018-07-28T01:08:33.680Z,15.13
2018-07-28T01:11:01.761Z,16.53
2018-07-28T01:13:29.835Z,18.50
2018-07-28T01:15:58.059Z,18.67
2018-07-28T01:18:26.141Z,18.37
2018-07-28T01:20:54.241Z,18.70
2018-07-28T01:23:22.325Z,16.07
2018-07-28T01:25:50.388Z,14.93
2018-07-28T01:28:18.492Z,13.93
2018-07-28T01:30:46.577Z,14.97
2018-07-28T01:33:15.062Z,15.40
2018-07-28T01:35:43.205Z,13.43
2018-07-28T01:38:11.815Z,12.70
2018-07-28T01:40:39.901Z,11.53
2018-07-28T01:43:08.084Z,12.60
2018-07-28T01:45:36.172Z,12.17
2018-07-28T01:48:04.287Z,13.30
2018-07-28T01:50:32.377Z,14.40
2018-07-28T01:53:00.424Z,13.40
2018-07-28T01:55:28.496Z,15.10
2018-07-28T01:57:56.545Z,13.87
2018-07-28T02:00:24.645Z,14.10
2018-07-28T02:02:52.691Z,13.83
2018-07-28T02:05:20.992Z,11.23
2018-07-28T02:07:49.152Z,12.83
2018-07-28T02:10:17.699Z,11.97
2018-07-28T02:12:45.791Z,12.67
2018-07-28T02:15:13.903Z,13.30
2018-07-28T02:17:41.993Z,13.00
2018-07-28T02:20:10.061Z,11.50
2018-07-28T02:22:38.123Z,11.90
2018-07-28T02:25:07.125Z,11.10
2018-07-28T02:27:35.204Z,10.50
2018-07-28T02:30:03.285Z,10.60
2018-07-28T02:32:31.430Z,11.20
2018-07-28T02:34:59.606Z,12.50
2018-07-28T02:37:27.798Z,10.27
2018-07-28T02:39:56.070Z,13.90
2018-07-28T02:42:24.260Z,10.93
2018-07-28T02:44:52.329Z,12.73
2018-07-28T02:47:20.743Z,11.87
2018-07-28T02:49:48.882Z,12.00
2018-07-28T02:52:17.055Z,11.73
2018-07-28T02:54:45.125Z,11.70
2018-07-28T02:57:13.456Z,12.47
2018-07-28T02:59:41.537Z,13.10
2018-07-28T03:02:09.629Z,14.33
2018-07-28T03:04:37.790Z,13.23
2018-07-28T03:07:06.865Z,12.33
2018-07-28T03:09:34.952Z,13.23
2018-07-28T03:12:03.059Z,17.20
2018-07-28T03:14:31.147Z,12.50
2018-07-28T03:16:59.271Z,12.73
2018-07-28T03:19:27.397Z,12.07
2018-07-28T03:21:55.553Z,12.07
2018-07-28T03:24:23.742Z,10.60
2018-07-28T03:26:51.912Z,13.03
2018-07-28T03:29:20.345Z,11.83
2018-07-28T03:31:48.420Z,12.07
2018-07-28T03:34:16.481Z,11.83
2018-07-28T03:36:44.600Z,13.33
2018-07-28T03:39:14.416Z,11.80
2018-07-28T03:41:42.480Z,12.53
2018-07-28T03:44:10.606Z,12.03
2018-07-28T03:46:38.653Z,11.27
2018-07-28T03:49:06.742Z,13.27
2018-07-28T03:51:35.057Z,12.17
2018-07-28T03:54:03.177Z,10.43
2018-07-28T03:56:31.459Z,10.80
2018-07-28T03:58:59.817Z,11.37
2018-07-28T04:01:27.872Z,10.70
2018-07-28T04:03:55.975Z,10.50
2018-07-28T04:06:24.048Z,11.37
2018-07-28T04:08:52.188Z,10.10
2018-07-28T04:11:20.552Z,9.87
2018-07-28T04:13:48.686Z,10.93
2018-07-28T04:16:16.765Z,11.00
2018-07-28T04:18:44.832Z,11.57
2018-07-28T04:21:12.978Z,10.60
2018-07-28T04:23:41.047Z,10.27
2018-07-28T04:26:09.212Z,10.90
2018-07-28T04:28:37.329Z,11.43
2018-07-28T04:31:05.589Z,10.03
2018-07-28T04:33:33.764Z,9.83
2018-07-28T04:36:01.817Z,10.60
2018-07-28T04:38:29.916Z,10.53
2018-07-28T04:40:58.108Z,11.70
2018-07-28T04:43:26.184Z,11.07
2018-07-28T04:45:54.477Z,11.07
2018-07-28T04:48:22.644Z,11.40
2018-07-28T04:50:50.957Z,10.40
2018-07-28T04:53:19.169Z,10.40
2018-07-28T04:55:47.263Z,10.63
2018-07-28T04:58:15.556Z,10.77
2018-07-28T05:00:43.719Z,10.67
2018-07-28T05:03:11.877Z,9.50
2018-07-28T05:05:39.948Z,11.47
2018-07-28T05:08:08.025Z,9.90
2018-07-28T05:10:36.256Z,8.90
2018-07-28T05:13:04.474Z,9.80
2018-07-28T05:15:32.548Z,10.60
2018-07-28T05:18:00.967Z,9.40
2018-07-28T05:20:29.092Z,8.87
2018-07-28T05:22:57.151Z,9.60
2018-07-28T05:25:25.187Z,9.23
2018-07-28T05:27:53.289Z,9.10
2018-07-28T05:30:21.458Z,10.83
2018-07-28T05:32:49.547Z,9.43
2018-07-28T05:35:17.609Z,9.70
2018-07-28T05:37:45.688Z,9.67
2018-07-28T05:40:13.787Z,9.80
2018-07-28T05:42:41.873Z,9.97
2018-07-28T05:45:09.936Z,9.93
2018-07-28T05:47:38.101Z,8.93
2018-07-28T05:50:07.078Z,9.20
2018-07-28T05:52:35.400Z,9.33
2018-07-28T05:55:03.529Z,8.90
2018-07-28T05:57:31.897Z,8.17
2018-07-28T05:59:59.991Z,8.83
2018-07-28T06:02:28.240Z,9.50
2018-07-28T06:04:57.397Z,9.20
2018-07-28T06:07:25.998Z,9.20
2018-07-28T06:09:54.372Z,11.37
2018-07-28T06:12:22.504Z,9.43
2018-07-28T06:14:50.576Z,10.10
2018-07-28T06:17:19.188Z,8.53
2018-07-28T06:19:47.272Z,9.60
2018-07-28T06:22:15.325Z,8.57
2018-07-28T06:24:43.404Z,9.43
2018-07-28T06:27:11.484Z,7.90
2018-07-28T06:29:39.549Z,7.73
2018-07-28T06:32:07.906Z,8.73
2018-07-28T06:34:35.952Z,7.77
2018-07-28T06:37:04.045Z,9.80
2018-07-28T06:39:32.196Z,8.43
2018-07-28T06:42:00.425Z,8.47
2018-07-28T06:44:28.514Z,8.07
2018-07-28T06:46:56.601Z,8.37
2018-07-28T06:49:24.810Z,8.27
2018-07-28T06:51:52.889Z,13.83
2018-07-28T06:54:20.976Z,8.10
2018-07-28T06:56:49.045Z,7.87
2018-07-28T06:59:17.112Z,8.33
2018-07-28T07:01:45.176Z,8.40
2018-07-28T07:04:13.284Z,7.73
2018-07-28T07:06:41.336Z,7.80
2018-07-28T07:09:10.904Z,7.60
2018-07-28T07:11:39.011Z,7.63
2018-07-28T07:14:07.314Z,7.50
2018-07-28T07:16:35.655Z,8.50
2018-07-28T07:19:04.093Z,9.00
2018-07-28T07:21:32.146Z,8.13
2018-07-28T07:24:00.237Z,9.60
2018-07-28T07:26:28.349Z,7.57
2018-07-28T07:28:56.446Z,8.10
2018-07-28T07:31:24.512Z,9.00
2018-07-28T07:33:52.616Z,8.10
2018-07-28T07:36:20.693Z,8.27
2018-07-28T07:38:48.816Z,8.40
2018-07-28T07:41:16.978Z,7.67
2018-07-28T07:43:45.052Z,7.63
2018-07-28T07:46:13.126Z,7.93
2018-07-28T07:48:41.214Z,7.60
2018-07-28T07:51:09.304Z,8.63
2018-07-28T07:53:37.729Z,7.40
2018-07-28T07:56:05.774Z,8.67
2018-07-28T07:58:33.877Z,15.23
2018-07-28T08:01:02.021Z,12.10
2018-07-28T08:03:30.261Z,9.30
2018-07-28T08:05:58.310Z,8.07
2018-07-28T08:08:26.393Z,14.93
2018-07-28T08:10:54.501Z,22.57
2018-07-28T08:13:22.590Z,15.30
2018-07-28T08:15:50.703Z,18.80
2018-07-28T08:18:18.793Z,18.53
2018-07-28T08:20:46.996Z,14.47
2018-07-28T08:23:15.135Z,14.73
2018-07-28T08:25:43.241Z,14.83
2018-07-28T08:28:11.315Z,14.27
2018-07-28T08:30:39.422Z,14.30
2018-07-28T08:33:07.862Z,13.40
2018-07-28T08:35:35.927Z,13.13
2018-07-28T08:38:04.041Z,14.23
2018-07-28T08:40:32.647Z,13.83
2018-07-28T08:43:00.765Z,13.30
2018-07-28T08:45:28.844Z,14.90
2018-07-28T08:47:56.908Z,14.30
2018-07-28T08:50:25.004Z,13.13
2018-07-28T08:52:53.104Z,13.50
2018-07-28T08:55:21.228Z,12.07
2018-07-28T08:57:49.460Z,12.90
2018-07-28T09:00:17.536Z,12.90
2018-07-28T09:02:45.809Z,12.97
2018-07-28T09:05:13.920Z,13.00
2018-07-28T09:07:41.971Z,14.23
2018-07-28T09:10:10.292Z,12.67
2018-07-28T09:12:38.684Z,12.60
2018-07-28T09:15:07.901Z,11.93
2018-07-28T09:17:35.980Z,11.27
2018-07-28T09:20:04.322Z,11.47
2018-07-28T09:22:32.421Z,10.20
2018-07-28T09:25:00.705Z,10.03
2018-07-28T09:27:28.764Z,9.60
2018-07-28T09:29:56.855Z,10.13
2018-07-28T09:32:24.924Z,10.30
2018-07-28T09:34:53.004Z,10.53
2018-07-28T09:37:21.129Z,9.10
2018-07-28T09:39:49.756Z,9.90
2018-07-28T09:42:17.884Z,8.53
2018-07-28T09:44:46.124Z,10.10
2018-07-28T09:47:14.228Z,8.80
2018-07-28T09:49:42.301Z,9.57
2018-07-28T09:52:10.353Z,8.17
2018-07-28T09:54:38.440Z,7.87
2018-07-28T09:57:06.688Z,8.50
2018-07-28T09:59:34.946Z,7.97
2018-07-28T10:02:03.039Z,8.50
2018-07-28T10:04:31.141Z,7.67
2018-07-28T10:06:59.205Z,8.23
2018-07-28T10:09:27.244Z,8.00
2018-07-28T10:11:55.486Z,7.73
2018-07-28T10:14:23.637Z,7.50
2018-07-28T10:16:51.780Z,7.80
2018-07-28T10:19:19.840Z,7.50
2018-07-28T10:21:47.893Z,6.60
2018-07-28T10:24:16.004Z,5.77
2018-07-28T10:26:44.452Z,6.53
2018-07-28T10:29:13.197Z,5.60
2018-07-28T10:31:41.248Z,7.33
2018-07-28T10:34:09.387Z,5.77
2018-07-28T10:36:37.455Z,5.40
2018-07-28T10:39:08.425Z,5.67
2018-07-28T10:41:36.594Z,5.17
2018-07-28T10:44:05.029Z,8.57
2018-07-28T10:46:33.113Z,5.07
2018-07-28T10:49:01.952Z,5.77
2018-07-28T10:51:30.092Z,5.57
2018-07-28T10:53:58.307Z,5.40
2018-07-28T10:56:26.420Z,5.13
2018-07-28T10:58:54.544Z,4.70
2018-07-28T11:01:22.721Z,5.33
2018-07-28T11:03:50.802Z,5.03
2018-07-28T11:06:18.890Z,5.23
2018-07-28T11:08:47.108Z,4.80
2018-07-28T11:11:15.325Z,5.27
2018-07-28T11:13:43.439Z,6.93
2018-07-28T11:16:11.520Z,5.73
2018-07-28T11:18:39.682Z,6.07
2018-07-28T11:21:08.085Z,5.90
2018-07-28T11:23:41.637Z,6.00
2018-07-28T11:26:09.846Z,5.73
2018-07-28T11:28:38.429Z,6.50
2018-07-28T11:31:10.949Z,5.80
2018-07-28T11:33:44.616Z,7.03
2018-07-28T11:36:18.370Z,7.20
2018-07-28T11:38:52.012Z,7.17
2018-07-28T11:41:25.711Z,6.50
2018-07-28T11:43:59.317Z,6.50
2018-07-28T11:46:27.512Z,7.23
2018-07-28T11:48:55.609Z,7.03
2018-07-28T11:51:23.710Z,7.07
2018-07-28T11:53:52.069Z,6.87
2018-07-28T11:56:20.200Z,6.10
2018-07-28T11:58:48.613Z,8.00
2018-07-28T12:01:16.688Z,7.20
2018-07-28T12:03:44.752Z,7.07
2018-07-28T12:06:12.841Z,6.43
2018-07-28T12:08:40.924Z,6.97
2018-07-28T12:11:09.017Z,7.03
2018-07-28T12:13:37.442Z,6.70
2018-07-28T12:16:05.509Z,6.20
2018-07-28T12:18:33.763Z,6.80
2018-07-28T12:21:01.962Z,7.10
2018-07-28T12:23:30.045Z,7.13
2018-07-28T12:25:58.221Z,6.60
2018-07-28T12:28:26.389Z,6.07
2018-07-28T12:30:54.476Z,6.63
2018-07-28T12:33:22.559Z,7.73
2018-07-28T12:35:50.715Z,7.10
2018-07-28T12:38:18.787Z,7.00
2018-07-28T12:40:46.844Z,8.27
2018-07-28T12:43:14.931Z,6.60
2018-07-28T12:45:43.001Z,6.43
2018-07-28T12:48:11.123Z,6.20
2018-07-28T12:50:39.267Z,6.67
2018-07-28T12:53:07.352Z,6.10
2018-07-28T12:55:35.597Z,6.10
2018-07-28T12:58:03.852Z,7.50
2018-07-28T13:00:31.986Z,6.80
2018-07-28T13:03:00.056Z,6.57
2018-07-28T13:05:28.340Z,5.83
2018-07-28T13:07:56.512Z,5.47
2018-07-28T13:10:24.563Z,5.73
2018-07-28T13:12:52.771Z,5.77
2018-07-28T13:15:20.865Z,6.07
2018-07-28T13:17:49.046Z,5.43
2018-07-28T13:20:17.386Z,5.60
2018-07-28T13:22:45.553Z,5.70
2018-07-28T13:25:13.619Z,6.00
2018-07-28T13:27:41.708Z,5.97
2018-07-28T13:30:09.780Z,6.50
2018-07-28T13:32:37.972Z,6.03
2018-07-28T13:35:06.029Z,7.33
2018-07-28T13:37:34.115Z,7.10
2018-07-28T13:40:02.194Z,6.30
2018-07-28T13:42:30.296Z,6.90
2018-07-28T13:44:58.501Z,6.97
2018-07-28T13:47:26.629Z,6.10
2018-07-28T13:49:54.929Z,6.37
2018-07-28T13:52:23.180Z,6.37
2018-07-28T13:54:53.669Z,6.50
2018-07-28T13:57:21.938Z,6.40
2018-07-28T13:59:50.125Z,5.67
2018-07-28T14:02:18.277Z,6.00
2018-07-28T14:04:46.493Z,6.77
2018-07-28T14:07:14.944Z,6.50
2018-07-28T14:09:43.120Z,6.90
2018-07-28T14:12:11.240Z,6.90
2018-07-28T14:14:39.484Z,6.50
2018-07-28T14:17:07.677Z,12.17
2018-07-28T14:19:35.752Z,6.37
2018-07-28T14:22:04.293Z,6.67
2018-07-28T14:24:32.667Z,7.50
2018-07-28T14:27:00.795Z,6.73
2018-07-28T14:29:29.322Z,6.60
2018-07-28T14:31:57.494Z,6.70
2018-07-28T14:34:26.000Z,6.70
2018-07-28T14:36:54.344Z,6.00
2018-07-28T14:39:22.407Z,7.07
2018-07-28T14:41:50.475Z,7.27
2018-07-28T14:44:18.684Z,6.63
2018-07-28T14:46:46.764Z,6.80
2018-07-28T14:49:15.028Z,7.63
2018-07-28T14:51:43.308Z,7.30
2018-07-28T14:54:11.435Z,7.30
2018-07-28T14:56:39.880Z,7.80
2018-07-28T14:59:08.268Z,7.93
2018-07-28T15:01:36.801Z,7.00
2018-07-28T15:04:04.955Z,6.80
2018-07-28T15:06:33.088Z,7.17
2018-07-28T15:09:01.403Z,7.70
2018-07-28T15:11:30.021Z,7.57
2018-07-28T15:13:58.127Z,7.30
2018-07-28T15:16:26.348Z,8.60
2018-07-28T15:18:54.413Z,8.10
2018-07-28T15:21:22.591Z,7.47
2018-07-28T15:23:50.735Z,7.50
2018-07-28T15:26:18.812Z,7.97
2018-07-28T15:28:48.352Z,7.57
2018-07-28T15:31:16.684Z,7.17
2018-07-28T15:33:44.931Z,8.43
2018-07-28T15:36:13.006Z,7.40
2018-07-28T15:38:41.161Z,7.97
2018-07-28T15:41:09.325Z,7.57
2018-07-28T15:43:37.836Z,10.33
2018-07-28T15:46:06.533Z,8.03
2018-07-28T15:48:34.664Z,7.97
2018-07-28T15:51:02.884Z,8.33
2018-07-28T15:53:31.037Z,8.40
2018-07-28T15:55:59.459Z,9.03
2018-07-28T15:58:27.556Z,9.93
2018-07-28T16:00:55.672Z,8.50
2018-07-28T16:03:23.722Z,9.20
2018-07-28T16:05:51.870Z,8.30
2018-07-28T16:08:20.471Z,8.30
2018-07-28T16:10:48.529Z,7.97
2018-07-28T16:13:16.604Z,8.47
2018-07-28T16:15:44.764Z,8.50
2018-07-28T16:18:12.862Z,8.43
2018-07-28T16:20:40.952Z,9.10
2018-07-28T16:23:09.112Z,9.30
2018-07-28T16:25:37.277Z,9.23
2018-07-28T16:28:05.482Z,8.60
2018-07-28T16:30:33.768Z,8.77
2018-07-28T16:33:01.893Z,9.07
2018-07-28T16:35:30.089Z,8.90
2018-07-28T16:37:58.314Z,9.43
2018-07-28T16:40:26.491Z,9.17
2018-07-28T16:42:54.726Z,9.83
2018-07-28T16:45:22.999Z,9.03
2018-07-28T16:47:51.138Z,9.10
2018-07-28T16:50:19.216Z,9.10
2018-07-28T16:52:47.376Z,9.47
2018-07-28T16:55:15.548Z,9.50
2018-07-28T16:57:43.630Z,9.77
2018-07-28T17:00:11.890Z,9.10
2018-07-28T17:02:40.384Z,11.27
2018-07-28T17:05:08.448Z,9.73
2018-07-28T17:07:36.861Z,9.53
2018-07-28T17:10:05.412Z,9.80
2018-07-28T17:12:33.478Z,10.07
2018-07-28T17:15:01.531Z,10.60
2018-07-28T17:17:29.822Z,9.33
2018-07-28T17:19:57.921Z,10.63
2018-07-28T17:22:26.076Z,10.00
2018-07-28T17:24:54.413Z,10.60
2018-07-28T17:27:22.639Z,9.93
2018-07-28T17:29:51.028Z,11.23
2018-07-28T17:32:19.326Z,10.10
2018-07-28T17:34:47.574Z,10.30
2018-07-28T17:37:15.813Z,10.10
2018-07-28T17:39:43.965Z,10.50
2018-07-28T17:42:12.516Z,9.70
2018-07-28T17:44:40.651Z,9.50
2018-07-28T17:47:08.822Z,9.80
2018-07-28T17:49:36.876Z,10.70
2018-07-28T17:52:04.985Z,9.73
2018-07-28T17:54:33.073Z,10.33
2018-07-28T17:57:01.201Z,9.93
2018-07-28T17:59:29.347Z,10.40
2018-07-28T18:01:57.724Z,10.17
2018-07-28T18:04:26.086Z,11.03
2018-07-28T18:06:54.385Z,10.37
2018-07-28T18:09:22.491Z,16.03
2018-07-28T18:11:50.677Z,11.73
2018-07-28T18:14:18.817Z,12.40
2018-07-28T18:16:46.904Z,11.50
2018-07-28T18:19:14.986Z,11.50
2018-07-28T18:21:43.172Z,9.97
2018-07-28T18:24:11.306Z,9.73
2018-07-28T18:26:39.701Z,11.20
2018-07-28T18:29:07.928Z,11.40
2018-07-28T18:31:35.984Z,11.63
2018-07-28T18:34:04.085Z,11.40
2018-07-28T18:36:32.232Z,11.37
2018-07-28T18:39:00.309Z,10.97
2018-07-28T18:41:28.440Z,10.63
2018-07-28T18:43:56.714Z,11.30
2018-07-28T18:46:24.931Z,10.70
2018-07-28T18:48:53.043Z,12.17
2018-07-28T18:51:21.617Z,11.90
2018-07-28T18:53:49.679Z,10.63
2018-07-28T18:56:17.808Z,10.43
2018-07-28T18:58:46.093Z,10.57
2018-07-28T19:01:14.442Z,9.37
2018-07-28T19:03:42.548Z,11.10
2018-07-28T19:06:10.629Z,11.23
2018-07-28T19:08:38.797Z,10.20
2018-07-28T19:11:07.285Z,10.53
2018-07-28T19:13:41.046Z,10.33
2018-07-28T19:16:09.268Z,9.73
2018-07-28T19:18:42.797Z,10.13
2018-07-28T19:21:10.884Z,11.40
2018-07-28T19:23:44.498Z,9.73
2018-07-28T19:26:13.125Z,10.47
2018-07-28T19:28:46.545Z,12.50
2018-07-28T19:31:14.999Z,12.03
2018-07-28T19:33:43.073Z,11.67
2018-07-28T19:36:16.904Z,12.30
2018-07-28T19:38:44.981Z,13.03
2018-07-28T19:41:13.262Z,14.00
2018-07-28T19:43:41.464Z,12.87
2018-07-28T19:46:09.580Z,13.10
2018-07-28T19:48:37.649Z,13.77
2018-07-28T19:51:06.144Z,12.73
2018-07-28T19:53:34.275Z,11.50
2018-07-28T19:56:02.443Z,10.07
2018-07-28T19:58:30.557Z,10.23
2018-07-28T20:00:59.406Z,10.83
2018-07-28T20:03:27.520Z,10.43
2018-07-28T20:05:55.603Z,10.00
2018-07-28T20:08:23.699Z,10.47
2018-07-28T20:10:51.845Z,11.97
2018-07-28T20:13:19.948Z,11.57
2018-07-28T20:15:48.048Z,13.80
2018-07-28T20:18:16.164Z,13.27
2018-07-28T20:20:44.411Z,10.43
2018-07-28T20:23:12.481Z,11.70
2018-07-28T20:25:40.572Z,11.73
2018-07-28T20:28:08.756Z,11.47
2018-07-28T20:30:37.428Z,11.00
2018-07-28T20:33:05.565Z,12.17
2018-07-28T20:35:34.589Z,11.97
2018-07-28T20:38:02.664Z,11.70
2018-07-28T20:40:30.800Z,12.80
2018-07-28T20:42:59.055Z,13.60
2018-07-28T20:45:27.230Z,11.03
2018-07-28T20:47:55.392Z,10.80
2018-07-28T20:50:23.629Z,11.33
2018-07-28T20:52:51.737Z,12.53
2018-07-28T20:55:19.947Z,11.40
2018-07-28T20:57:48.105Z,12.47
2018-07-28T21:00:16.576Z,11.80
2018-07-28T21:02:44.688Z,11.37
2018-07-28T21:05:12.777Z,13.10
2018-07-28T21:07:40.893Z,12.33
2018-07-28T21:10:09.037Z,11.43
2018-07-28T21:12:37.287Z,10.97
2018-07-28T21:15:05.948Z,11.77
2018-07-28T21:17:34.789Z,11.63
2018-07-28T21:20:03.259Z,12.30
2018-07-28T21:22:31.400Z,12.10
2018-07-28T21:24:59.481Z,11.73
2018-07-28T21:27:27.592Z,12.27
2018-07-28T21:29:55.761Z,12.13
2018-07-28T21:32:23.889Z,12.60
2018-07-28T21:34:51.953Z,13.17
2018-07-28T21:37:20.050Z,13.33
2018-07-28T21:39:48.213Z,11.87
2018-07-28T21:42:16.288Z,12.60
2018-07-28T21:44:44.417Z,12.77
2018-07-28T21:47:12.523Z,12.67
2018-07-28T21:49:40.649Z,13.33
2018-07-28T21:52:08.729Z,13.83
2018-07-28T21:54:36.812Z,13.43
2018-07-28T21:57:04.941Z,13.23
2018-07-28T21:59:33.150Z,13.50
2018-07-28T22:02:01.400Z,12.23
2018-07-28T22:04:33.098Z,12.93
2018-07-28T22:07:01.168Z,12.17
2018-07-28T22:09:29.260Z,11.83
2018-07-28T22:11:57.331Z,13.40
2018-07-28T22:14:25.533Z,12.60
2018-07-28T22:16:53.806Z,12.03
2018-07-28T22:19:22.224Z,12.60
2018-07-28T22:21:50.328Z,12.77
2018-07-28T22:24:18.416Z,12.80
2018-07-28T22:26:46.489Z,12.33
2018-07-28T22:29:14.692Z,13.47
2018-07-28T22:31:42.849Z,11.93
2018-07-28T22:34:11.297Z,12.77
2018-07-28T22:36:39.343Z,12.00
2018-07-28T22:39:08.398Z,13.33
2018-07-28T22:41:36.500Z,12.10
2018-07-28T22:44:04.628Z,11.93
2018-07-28T22:46:32.752Z,12.87
2018-07-28T22:49:00.829Z,11.77
2018-07-28T22:51:28.925Z,11.87
2018-07-28T22:53:57.033Z,12.13
2018-07-28T22:56:25.714Z,12.60
2018-07-28T22:58:53.816Z,12.87
2018-07-28T23:01:21.899Z,13.60
2018-07-28T23:03:50.174Z,11.87
2018-07-28T23:06:19.550Z,11.47
2018-07-28T23:08:47.636Z,13.07
2018-07-28T23:11:15.733Z,11.70
2018-07-28T23:13:43.833Z,14.43
2018-07-28T23:16:11.905Z,12.30
2018-07-28T23:18:39.993Z,11.30
2018-07-28T23:21:08.066Z,11.67
2018-07-28T23:23:36.172Z,11.60
2018-07-28T23:26:04.269Z,12.30
2018-07-28T23:28:32.821Z,11.57
2018-07-28T23:31:00.901Z,12.37
2018-07-28T23:33:29.032Z,12.47
2018-07-28T23:35:57.109Z,11.00
2018-07-28T23:38:25.158Z,12.83
2018-07-28T23:40:53.249Z,11.50
2018-07-28T23:43:21.324Z,12.40
2018-07-28T23:45:49.436Z,12.47
2018-07-28T23:48:17.519Z,11.80
2018-07-28T23:50:45.637Z,12.23
2018-07-28T23:53:13.699Z,11.60
2018-07-28T23:55:41.870Z,11.80
2018-07-28T23:58:09.912Z,9.97
